Time;durP1;ratioP1;P1;durP2;ratioP2;P2;SDS_P1;SDS_P2;PMS_P1;PMS_P2;Temp;Humidity;BMP_temperature;BMP_pressure;BME280_temperature;BME280_humidity;BME280_pressure;Samples;Min_cycle;Max_cycle;Signal;HPM_P1;HPM_P2
2022/08/30 00:01:28;;;;;;;3.47;2.78;;;21.70;99.90;;;;;;5067090;28;20552;-74
2022/08/30 00:03:57;;;;;;;3.75;2.60;;;21.60;99.90;;;;;;5092080;28;20186;-74
2022/08/30 00:06:26;;;;;;;3.50;2.90;;;21.50;99.90;;;;;;5084661;28;20194;-74
2022/08/30 00:08:53;;;;;;;3.72;3.10;;;21.40;99.90;;;;;;5125531;27;20566;-74
2022/08/30 00:11:24;;;;;;;3.60;3.20;;;21.30;99.90;;;;;;5088167;28;20194;-74
2022/08/30 00:13:53;;;;;;;5.88;3.80;;;21.30;99.90;;;;;;5096280;28;20214;-74
2022/08/30 00:16:22;;;;;;;9.60;5.18;;;21.30;99.90;;;;;;5093669;28;20589;-74
2022/08/30 00:18:49;;;;;;;6.40;5.75;;;21.40;99.90;;;;;;5118531;27;20258;-74
2022/08/30 00:21:18;;;;;;;9.35;6.75;;;21.40;99.90;;;;;;5067832;28;20193;-74
2022/08/30 00:23:44;;;;;;;6.68;5.38;;;21.40;99.90;;;;;;5075234;28;20182;-74
2022/08/30 00:26:11;;;;;;;9.23;5.57;;;21.30;99.90;;;;;;5090849;28;20332;-74
2022/08/30 00:28:37;;;;;;;7.13;5.30;;;21.30;99.90;;;;;;5101425;28;20555;-74
2022/08/30 00:31:05;;;;;;;8.33;5.47;;;21.30;99.90;;;;;;5075638;28;20189;-74
2022/08/30 00:33:31;;;;;;;7.53;5.60;;;21.40;99.90;;;;;;5093528;28;20567;-74
2022/08/30 00:35:58;;;;;;;7.90;6.05;;;21.30;99.90;;;;;;5099358;28;20177;-74
2022/08/30 00:38:24;;;;;;;8.40;6.13;;;21.30;99.90;;;;;;5093025;28;20182;-74
2022/08/30 00:40:52;;;;;;;7.85;7.05;;;21.20;99.90;;;;;;5102454;28;20690;-74
2022/08/30 00:43:28;;;;;;;9.93;7.50;;;21.20;99.90;;;;;;5103585;28;20190;-74
2022/08/30 00:45:57;;;;;;;9.48;7.97;;;21.20;99.90;;;;;;5091791;28;20189;-74
2022/08/30 00:48:23;;;;;;;11.33;8.97;;;21.30;99.90;;;;;;5089857;28;20197;-74
2022/08/30 00:50:56;;;;;;;11.82;8.85;;;21.30;99.90;;;;;;5089463;28;20179;-74
2022/08/30 00:53:29;;;;;;;14.60;9.75;;;21.30;99.90;;;;;;5126302;27;20214;-74
2022/08/30 00:55:59;;;;;;;14.90;10.65;;;21.30;99.90;;;;;;5123619;27;20185;-74
2022/08/30 00:58:35;;;;;;;11.57;10.37;;;21.40;99.90;;;;;;5107075;28;20758;-74
2022/08/30 01:01:05;;;;;;;16.53;10.93;;;21.40;99.90;;;;;;5108079;28;20181;-74
2022/08/30 01:03:35;;;;;;;14.13;11.48;;;21.50;99.90;;;;;;5071856;28;20186;-74
2022/08/30 01:06:04;;;;;;;14.20;11.70;;;21.50;99.90;;;;;;5073566;28;20183;-74
2022/08/30 01:08:30;;;;;;;12.97;11.77;;;21.60;99.90;;;;;;5090928;28;20182;-74
2022/08/30 01:10:58;;;;;;;13.77;11.73;;;21.50;99.90;;;;;;5123539;27;20550;-74
2022/08/30 01:13:27;;;;;;;15.40;12.38;;;21.50;99.90;;;;;;5091404;28;20201;-74
2022/08/30 01:15:54;;;;;;;14.32;12.70;;;21.40;99.90;;;;;;5108421;28;20178;-74
2022/08/30 01:18:22;;;;;;;14.02;12.38;;;21.50;99.90;;;;;;5086695;28;20248;-74
2022/08/30 01:21:15;;;;;;;14.13;12.37;;;21.50;99.90;;;;;;5089030;28;20278;-74
2022/08/30 01:23:46;;;;;;;16.43;14.83;;;21.60;99.90;;;;;;5071913;28;20342;-74
2022/08/30 01:26:16;;;;;;;18.75;16.67;;;21.70;99.90;;;;;;5122138;27;20193;-74
2022/08/30 01:28:51;;;;;;;18.47;16.57;;;21.80;99.90;;;;;;5106315;28;20197;-74
2022/08/30 01:31:18;;;;;;;21.15;18.27;;;21.90;99.90;;;;;;5074334;28;20261;-74
2022/08/30 01:33:44;;;;;;;23.30;20.83;;;22.00;99.90;;;;;;5091357;28;20210;-74
2022/08/30 01:36:14;;;;;;;23.40;20.90;;;22.10;99.90;;;;;;5070158;28;20265;-74
2022/08/30 01:38:58;;;;;;;28.17;24.33;;;22.20;99.90;;;;;;5102642;28;20277;-74
2022/08/30 01:41:33;;;;;;;27.60;24.50;;;22.30;99.90;;;;;;5110212;27;20273;-75
2022/08/30 01:44:07;;;;;;;27.92;25.08;;;22.30;99.90;;;;;;5074004;28;20659;-74
2022/08/30 01:46:39;;;;;;;29.20;23.95;;;22.30;99.90;;;;;;5089509;28;20190;-74
2022/08/30 01:49:12;;;;;;;27.17;24.45;;;22.20;99.90;;;;;;5073992;28;20178;-74
2022/08/30 01:51:40;;;;;;;26.00;23.02;;;22.20;99.90;;;;;;5112327;27;20194;-74
2022/08/30 01:54:07;;;;;;;25.23;22.58;;;22.10;99.90;;;;;;5061345;28;20210;-74
2022/08/30 01:56:33;;;;;;;26.33;22.30;;;22.10;99.90;;;;;;5092045;28;20240;-74
2022/08/30 01:59:00;;;;;;;24.63;21.90;;;22.10;99.90;;;;;;5103818;28;20182;-74
2022/08/30 02:01:32;;;;;;;22.85;20.27;;;22.10;99.90;;;;;;5091593;28;20226;-74
2022/08/30 02:03:58;;;;;;;20.63;18.42;;;22.10;99.90;;;;;;5086754;28;20663;-74
2022/08/30 02:06:25;;;;;;;21.85;18.88;;;22.10;99.90;;;;;;5089808;28;20186;-74
2022/08/30 02:08:52;;;;;;;23.08;18.90;;;22.00;99.90;;;;;;5080700;28;20194;-74
2022/08/30 02:11:18;;;;;;;21.83;19.52;;;22.00;99.90;;;;;;5073119;28;20237;-74
2022/08/30 02:13:45;;;;;;;23.58;20.67;;;22.00;99.90;;;;;;5089916;28;20679;-74
2022/08/30 02:16:18;;;;;;;22.23;19.60;;;22.00;99.90;;;;;;5091676;28;20186;-74
2022/08/30 02:18:45;;;;;;;21.77;18.75;;;22.00;99.90;;;;;;5087685;28;20194;-74
2022/08/30 02:21:13;;;;;;;19.33;17.02;;;22.00;99.90;;;;;;5099137;28;20198;-74
2022/08/30 02:23:40;;;;;;;19.23;17.20;;;22.00;99.90;;;;;;5105964;28;20194;-74
2022/08/30 02:26:07;;;;;;;18.60;16.60;;;21.90;99.90;;;;;;5088261;28;20190;-74
2022/08/30 02:28:34;;;;;;;22.13;16.48;;;21.90;99.90;;;;;;5089250;28;20198;-75
2022/08/30 02:31:02;;;;;;;17.35;15.55;;;21.90;99.90;;;;;;5107617;28;20258;-74
2022/08/30 02:33:28;;;;;;;11.90;10.55;;;21.90;99.90;;;;;;5090271;28;20256;-74
2022/08/30 02:35:55;;;;;;;10.60;9.57;;;21.60;99.90;;;;;;5083847;28;20189;-74
2022/08/30 02:38:22;;;;;;;9.50;7.80;;;21.40;99.90;;;;;;5081280;28;20178;-74
2022/08/30 02:40:50;;;;;;;9.15;7.18;;;21.40;99.90;;;;;;5116605;28;20555;-74
2022/08/30 02:43:17;;;;;;;6.32;5.53;;;21.30;99.90;;;;;;5091626;28;20235;-74
2022/08/30 02:45:43;;;;;;;5.37;4.03;;;21.20;99.90;;;;;;5107268;28;20204;-74
2022/08/30 02:48:10;;;;;;;5.60;3.58;;;21.10;99.90;;;;;;5086714;28;20191;-74
2022/08/30 02:50:47;;;;;;;4.17;3.50;;;21.00;99.90;;;;;;5089413;28;20632;-74
2022/08/30 02:53:14;;;;;;;2.78;2.50;;;20.90;99.90;;;;;;5107102;28;20256;-74
2022/08/30 02:55:40;;;;;;;2.40;1.93;;;20.70;99.90;;;;;;5106665;28;20189;-74
2022/08/30 02:58:11;;;;;;;2.10;1.63;;;20.60;99.90;;;;;;5065706;28;20664;-74
2022/08/30 03:00:39;;;;;;;1.73;1.60;;;20.50;99.90;;;;;;5056175;28;20231;-74
2022/08/30 03:03:06;;;;;;;2.13;1.60;;;20.40;99.90;;;;;;5081377;28;20249;-74
2022/08/30 03:05:33;;;;;;;2.60;1.57;;;20.30;99.90;;;;;;5091104;28;20273;-74
2022/08/30 03:08:01;;;;;;;2.03;1.40;;;20.30;99.90;;;;;;5089807;28;20190;-74
2022/08/30 03:10:29;;;;;;;1.80;1.03;;;20.20;99.90;;;;;;5090495;28;20236;-74
2022/08/30 03:12:55;;;;;;;4.87;1.50;;;20.20;99.90;;;;;;5089638;28;20217;-74
2022/08/30 03:15:24;;;;;;;1.50;1.20;;;20.30;99.90;;;;;;5080692;28;20190;-74
2022/08/30 03:17:53;;;;;;;2.77;1.20;;;20.20;99.90;;;;;;5095516;28;20422;-73
2022/08/30 03:20:21;;;;;;;1.43;1.30;;;20.20;99.90;;;;;;5121297;28;20186;-74
2022/08/30 03:22:47;;;;;;;7.13;1.50;;;20.20;99.90;;;;;;5090151;28;20178;-73
2022/08/30 03:25:14;;;;;;;1.47;1.00;;;20.10;99.90;;;;;;5127000;27;20189;-73
2022/08/30 03:27:41;;;;;;;1.77;1.00;;;20.10;99.90;;;;;;5087126;28;20205;-74
2022/08/30 03:30:09;;;;;;;1.57;1.10;;;20.00;99.90;;;;;;5108265;28;20194;-74
2022/08/30 03:32:35;;;;;;;1.23;1.10;;;20.00;99.90;;;;;;5091956;28;20182;-74
2022/08/30 03:35:02;;;;;;;1.40;1.20;;;19.90;99.90;;;;;;5109544;28;20194;-73
2022/08/30 03:37:28;;;;;;;1.60;0.80;;;20.00;99.90;;;;;;5075183;28;20177;-73
2022/08/30 03:39:55;;;;;;;1.30;1.10;;;20.10;99.90;;;;;;5092421;28;20194;-74
2022/08/30 03:42:23;;;;;;;2.47;1.10;;;20.10;99.90;;;;;;5074233;28;20190;-74
2022/08/30 03:44:49;;;;;;;1.77;1.03;;;20.10;99.90;;;;;;5096538;28;20543;-74
2022/08/30 03:47:15;;;;;;;8.77;1.27;;;20.00;99.90;;;;;;5090515;28;20195;-73
2022/08/30 03:49:42;;;;;;;3.63;1.10;;;20.10;99.90;;;;;;5091877;28;20194;-73
2022/08/30 03:52:09;;;;;;;6.30;1.37;;;20.10;99.90;;;;;;5101969;28;20548;-73
2022/08/30 03:54:35;;;;;;;1.53;0.93;;;20.10;99.90;;;;;;5091891;28;20226;-74
2022/08/30 03:57:02;;;;;;;4.00;1.07;;;20.10;99.90;;;;;;5072543;28;20214;-74
2022/08/30 03:59:28;;;;;;;2.50;1.10;;;20.20;99.90;;;;;;5125435;27;20220;-74
2022/08/30 04:01:55;;;;;;;1.57;1.00;;;20.30;99.90;;;;;;5090159;28;20217;-73
2022/08/30 04:04:21;;;;;;;2.17;1.10;;;20.30;99.90;;;;;;5108946;28;20190;-74
2022/08/30 04:06:48;;;;;;;1.93;1.20;;;20.40;99.90;;;;;;5071215;28;20190;-74
2022/08/30 04:09:14;;;;;;;1.30;1.20;;;20.40;99.90;;;;;;5125328;27;20190;-74
2022/08/30 04:11:41;;;;;;;1.53;1.37;;;20.50;99.90;;;;;;5069782;28;20191;-74
2022/08/30 04:14:10;;;;;;;1.57;1.40;;;20.50;99.90;;;;;;5091764;28;20201;-73
2022/08/30 04:16:36;;;;;;;1.77;1.63;;;20.50;99.90;;;;;;5088346;28;20189;-74
2022/08/30 04:19:03;;;;;;;2.77;1.90;;;20.60;99.90;;;;;;5073063;28;20251;-74
2022/08/30 04:21:30;;;;;;;3.07;2.10;;;20.70;99.90;;;;;;5074707;28;20656;-74
2022/08/30 04:23:56;;;;;;;3.43;1.83;;;20.70;99.90;;;;;;5071928;28;20178;-74
2022/08/30 04:26:23;;;;;;;2.53;2.03;;;20.70;99.90;;;;;;5098354;28;20189;-73
2022/08/30 04:28:49;;;;;;;3.20;2.00;;;20.80;99.90;;;;;;5082006;28;20202;-73
2022/08/30 04:31:17;;;;;;;2.03;1.80;;;20.80;99.90;;;;;;5074337;28;20186;-73
2022/08/30 04:33:48;;;;;;;3.80;1.67;;;20.90;99.90;;;;;;5074395;28;20792;-74
2022/08/30 04:36:14;;;;;;;2.07;1.50;;;21.00;99.90;;;;;;5109826;27;20596;-74
2022/08/30 04:38:42;;;;;;;17.77;2.07;;;21.00;99.90;;;;;;5107891;28;20182;-73
2022/08/30 04:41:17;;;;;;;5.03;1.33;;;21.10;99.90;;;;;;5090968;28;20189;-74
2022/08/30 04:43:46;;;;;;;2.07;1.40;;;21.20;99.90;;;;;;5078520;28;20277;-74
2022/08/30 04:46:12;;;;;;;1.10;1.00;;;21.30;99.90;;;;;;5090376;28;20225;-74
2022/08/30 04:48:39;;;;;;;1.73;1.00;;;21.40;99.90;;;;;;5092866;28;20719;-74
2022/08/30 04:51:12;;;;;;;1.87;1.00;;;21.40;99.90;;;;;;5102235;28;20325;-74
2022/08/30 04:53:42;;;;;;;4.83;1.20;;;21.50;99.90;;;;;;5074701;28;20319;-74
2022/08/30 04:56:27;;;;;;;3.20;1.10;;;21.50;99.90;;;;;;5074788;28;20174;-74
2022/08/30 04:58:54;;;;;;;3.50;1.15;;;21.50;99.90;;;;;;5124911;27;20190;-74
2022/08/30 05:01:26;;;;;;;1.85;1.10;;;21.60;99.90;;;;;;5091718;28;20273;-73
2022/08/30 05:03:54;;;;;;;5.03;1.30;;;21.60;99.90;;;;;;5075062;28;20645;-74
2022/08/30 05:06:23;;;;;;;1.95;1.10;;;21.70;99.90;;;;;;5074577;28;20182;-73
2022/08/30 05:08:51;;;;;;;3.15;1.02;;;21.80;99.90;;;;;;5074050;28;20634;-74
2022/08/30 05:11:18;;;;;;;1.95;1.10;;;21.80;99.90;;;;;;5090674;28;20332;-74
2022/08/30 05:13:45;;;;;;;1.02;0.93;;;21.80;99.90;;;;;;5120904;27;20224;-74
2022/08/30 05:16:18;;;;;;;1.77;1.10;;;21.90;99.90;;;;;;5073641;28;20182;-74
2022/08/30 05:18:48;;;;;;;1.50;1.20;;;21.90;99.90;;;;;;5069498;28;20194;-74
2022/08/30 05:21:25;;;;;;;1.98;1.40;;;22.00;99.90;;;;;;5073209;28;20190;-74
2022/08/30 05:23:56;;;;;;;3.20;1.35;;;22.10;99.90;;;;;;5073936;28;20303;-74
2022/08/30 05:26:33;;;;;;;4.47;1.30;;;22.10;99.90;;;;;;5116773;27;20726;-74
2022/08/30 05:29:03;;;;;;;3.55;1.40;;;22.20;99.90;;;;;;5083174;28;20198;-74
2022/08/30 05:31:35;;;;;;;4.90;1.13;;;22.20;99.90;;;;;;5093096;28;20186;-74
2022/08/30 05:34:03;;;;;;;2.08;1.50;;;22.30;99.90;;;;;;5086643;28;20203;-74
2022/08/30 05:36:36;;;;;;;6.68;1.40;;;22.40;99.90;;;;;;5064696;28;20182;-74
2022/08/30 05:39:07;;;;;;;2.55;1.52;;;22.50;99.90;;;;;;5106811;28;20255;-74
2022/08/30 05:41:34;;;;;;;2.70;1.40;;;22.50;99.90;;;;;;5103552;28;20186;-74
2022/08/30 05:44:04;;;;;;;1.63;1.48;;;22.60;99.90;;;;;;5089939;28;20182;-74
2022/08/30 05:46:32;;;;;;;6.93;1.88;;;22.60;99.90;;;;;;5091553;28;20235;-74
2022/08/30 05:49:06;;;;;;;5.57;1.92;;;22.70;99.90;;;;;;5120545;27;20310;-74
2022/08/30 05:51:37;;;;;;;4.65;2.17;;;22.80;99.90;;;;;;5087872;28;20239;-74
2022/08/30 05:54:05;;;;;;;4.30;2.10;;;22.90;99.90;;;;;;5105814;28;20206;-74
2022/08/30 05:56:34;;;;;;;2.58;2.13;;;22.90;99.90;;;;;;5090990;28;20178;-74
2022/08/30 05:59:03;;;;;;;4.80;2.40;;;23.00;99.90;;;;;;5118595;27;20216;-74
2022/08/30 06:01:44;;;;;;;2.65;2.22;;;23.00;99.90;;;;;;5091937;28;20189;-74
2022/08/30 06:04:13;;;;;;;3.67;2.70;;;23.10;99.90;;;;;;5073777;28;20185;-74
2022/08/30 06:06:42;;;;;;;4.57;3.05;;;23.10;99.90;;;;;;5083215;28;20257;-74
2022/08/30 06:09:11;;;;;;;5.82;3.17;;;23.20;99.90;;;;;;5120852;27;20544;-74
2022/08/30 06:11:38;;;;;;;5.40;3.40;;;23.20;99.90;;;;;;5086115;28;20276;-74
2022/08/30 06:14:05;;;;;;;5.53;3.85;;;23.30;99.90;;;;;;5085653;28;20559;-74
2022/08/30 06:16:34;;;;;;;5.50;3.58;;;23.40;99.90;;;;;;5090925;28;20234;-75
2022/08/30 06:19:01;;;;;;;7.15;3.95;;;23.40;99.90;;;;;;5069370;28;20179;-74
2022/08/30 06:21:33;;;;;;;5.53;3.90;;;23.50;99.90;;;;;;5124145;28;20182;-74
2022/08/30 06:24:04;;;;;;;6.10;4.47;;;23.60;99.90;;;;;;5089608;28;20182;-74
2022/08/30 06:26:31;;;;;;;9.75;5.38;;;23.60;99.90;;;;;;5079519;28;20198;-74
2022/08/30 06:28:58;;;;;;;6.47;5.03;;;23.80;99.90;;;;;;5087074;28;20639;-74
2022/08/30 06:31:27;;;;;;;5.72;5.22;;;23.90;99.90;;;;;;5106594;28;20554;-74
2022/08/30 06:33:54;;;;;;;6.22;5.63;;;23.90;99.90;;;;;;5090376;28;20557;-75
2022/08/30 06:36:24;;;;;;;6.38;5.78;;;24.00;99.90;;;;;;5067950;28;20170;-75
2022/08/30 06:38:54;;;;;;;8.13;5.95;;;24.10;99.90;;;;;;5088721;28;20254;-74
2022/08/30 06:41:26;;;;;;;6.50;5.90;;;24.30;99.90;;;;;;5084882;28;20577;-74
2022/08/30 06:43:53;;;;;;;9.90;6.88;;;24.40;99.90;;;;;;5090683;28;20216;-74
2022/08/30 06:46:27;;;;;;;11.02;6.97;;;24.40;99.90;;;;;;5090842;28;20225;-74
2022/08/30 06:48:55;;;;;;;8.90;7.43;;;24.60;99.90;;;;;;5082432;28;20193;-74
2022/08/30 06:51:26;;;;;;;12.27;7.20;;;24.70;99.90;;;;;;5081950;28;20612;-74
2022/08/30 06:53:53;;;;;;;11.70;8.00;;;24.80;99.90;;;;;;5124206;27;20205;-74
2022/08/30 06:56:21;;;;;;;12.32;8.68;;;24.90;99.90;;;;;;5124284;28;20264;-74
2022/08/30 06:58:49;;;;;;;10.75;9.13;;;25.10;99.90;;;;;;5063956;28;20207;-74
2022/08/30 07:01:21;;;;;;;12.15;10.80;;;25.20;99.90;;;;;;5100267;28;20281;-74
2022/08/30 07:03:49;;;;;;;14.02;10.70;;;25.40;99.90;;;;;;5092142;28;20191;-74
2022/08/30 07:06:18;;;;;;;13.07;9.13;;;25.40;99.90;;;;;;5112897;27;20196;-74
2022/08/30 07:08:49;;;;;;;11.50;9.43;;;25.60;99.90;;;;;;5076775;28;20265;-74
2022/08/30 07:11:36;;;;;;;17.52;12.27;;;25.60;99.90;;;;;;5092284;28;20228;-74
2022/08/30 07:14:06;;;;;;;17.45;11.75;;;25.80;99.90;;;;;;5093346;28;20686;-75
2022/08/30 07:16:33;;;;;;;18.35;12.70;;;26.00;99.90;;;;;;5105512;28;20186;-75
2022/08/30 07:19:04;;;;;;;19.25;12.77;;;26.00;99.90;;;;;;5091973;28;20198;-74
2022/08/30 07:21:42;;;;;;;19.58;15.73;;;26.00;99.90;;;;;;5101493;27;20282;-74
2022/08/30 07:24:11;;;;;;;21.90;14.68;;;26.10;99.90;;;;;;5106226;28;20190;-74
2022/08/30 07:26:50;;;;;;;17.90;13.60;;;26.20;99.90;;;;;;5101794;28;20194;-74
2022/08/30 07:29:17;;;;;;;13.98;12.48;;;26.30;99.90;;;;;;5067394;28;20170;-74
2022/08/30 07:31:44;;;;;;;21.40;13.80;;;26.40;99.90;;;;;;5086903;28;20744;-74
2022/08/30 07:34:11;;;;;;;14.13;12.65;;;26.50;99.90;;;;;;5093453;28;20275;-74
2022/08/30 07:36:38;;;;;;;14.68;11.30;;;26.70;99.90;;;;;;5094699;28;20194;-73
2022/08/30 07:39:07;;;;;;;11.23;9.77;;;26.60;99.90;;;;;;5092436;28;20215;-73
2022/08/30 07:41:39;;;;;;;12.70;9.35;;;26.70;99.90;;;;;;5083839;28;20581;-73
2022/08/30 07:44:10;;;;;;;12.20;9.50;;;26.70;99.90;;;;;;5095280;28;20178;-73
2022/08/30 07:46:40;;;;;;;9.85;7.07;;;26.80;99.90;;;;;;5095117;28;20181;-73
2022/08/30 07:49:10;;;;;;;8.20;7.25;;;26.90;99.90;;;;;;5090531;28;20190;-73
2022/08/30 07:51:37;;;;;;;8.90;7.03;;;26.90;99.90;;;;;;5097186;28;20628;-74
2022/08/30 07:54:05;;;;;;;10.88;8.07;;;27.00;99.90;;;;;;5110119;28;20206;-74
2022/08/30 07:56:32;;;;;;;14.50;8.02;;;27.10;99.90;;;;;;5119035;27;20192;-73
2022/08/30 07:58:58;;;;;;;12.93;9.35;;;27.30;99.90;;;;;;5092829;28;20252;-73
2022/08/30 08:01:27;;;;;;;16.40;9.77;;;27.30;99.90;;;;;;5104095;28;20186;-73
2022/08/30 08:03:54;;;;;;;11.25;9.55;;;27.40;99.90;;;;;;5092967;28;20205;-73
2022/08/30 08:06:22;;;;;;;14.07;10.63;;;27.40;99.90;;;;;;5086281;28;20239;-73
2022/08/30 08:08:50;;;;;;;14.05;11.05;;;27.50;99.90;;;;;;5114177;27;20190;-74
2022/08/30 08:11:24;;;;;;;14.07;11.25;;;27.60;99.90;;;;;;5087584;28;20340;-74
2022/08/30 08:13:52;;;;;;;14.65;12.65;;;27.70;99.90;;;;;;5109414;27;20208;-74
2022/08/30 08:16:23;;;;;;;17.67;12.27;;;27.70;99.90;;;;;;5104930;28;20280;-74
2022/08/30 08:18:50;;;;;;;15.23;12.13;;;27.70;99.90;;;;;;5079663;28;20870;-74
2022/08/30 08:21:17;;;;;;;18.02;12.00;;;27.70;99.90;;;;;;5106522;27;20208;-74
2022/08/30 08:23:44;;;;;;;17.90;12.73;;;27.80;99.90;;;;;;5097599;28;20182;-74
2022/08/30 08:26:13;;;;;;;14.88;11.75;;;27.80;99.90;;;;;;5093144;28;20203;-74
2022/08/30 08:28:41;;;;;;;18.65;12.30;;;27.90;99.90;;;;;;5088343;28;20227;-74
2022/08/30 08:31:23;;;;;;;15.73;12.57;;;28.00;99.90;;;;;;5108198;28;20258;-73
2022/08/30 08:33:50;;;;;;;15.93;11.98;;;28.00;99.90;;;;;;5111524;28;20227;-74
2022/08/30 08:36:17;;;;;;;17.02;11.95;;;28.10;99.90;;;;;;5112883;28;20173;-74
2022/08/30 08:38:44;;;;;;;24.10;12.30;;;28.10;99.90;;;;;;5114585;28;20173;-73
2022/08/30 08:41:54;;;;;;;17.42;12.63;;;28.00;99.90;;;;;;5096179;28;20186;-74
2022/08/30 08:44:49;;;;;;;21.05;13.80;;;28.10;99.90;;;;;;5088058;28;20185;-74
2022/08/30 08:47:31;;;;;;;17.35;12.95;;;28.20;99.90;;;;;;5095883;28;20209;-74
2022/08/30 08:50:04;;;;;;;17.27;13.15;;;28.20;99.90;;;;;;5100510;28;20202;-74
2022/08/30 08:55:25;;;;;;;17.40;12.65;;;28.20;99.90;;;;;;5074966;28;20190;-74
2022/08/30 08:57:51;;;;;;;19.58;12.45;;;28.30;99.90;;;;;;5072169;28;20973;-74
2022/08/30 09:00:18;;;;;;;17.77;12.75;;;28.40;99.90;;;;;;5096836;28;20182;-75
2022/08/30 09:02:58;;;;;;;19.48;12.25;;;28.40;99.90;;;;;;5096135;28;20189;-74
2022/08/30 09:05:30;;;;;;;17.15;11.82;;;28.50;99.90;;;;;;5061533;28;20198;-74
2022/08/30 09:08:03;;;;;;;21.83;12.02;;;28.50;99.90;;;;;;5100253;28;20185;-74
2022/08/30 09:10:32;;;;;;;21.80;11.88;;;28.70;99.90;;;;;;5096408;28;20178;-75
2022/08/30 09:13:00;;;;;;;17.50;11.43;;;28.80;99.90;;;;;;5065237;28;20182;-74
2022/08/30 09:15:31;;;;;;;16.00;10.70;;;28.80;99.90;;;;;;5095817;28;20194;-74
2022/08/30 09:18:06;;;;;;;17.20;11.68;;;28.90;99.90;;;;;;5086893;28;20769;-74
2022/08/30 09:20:45;;;;;;;17.60;10.90;;;29.00;99.90;;;;;;5066890;28;20269;-74
2022/08/30 09:23:15;;;;;;;17.88;11.25;;;29.00;99.90;;;;;;5116085;27;20178;-74
2022/08/30 09:26:04;;;;;;;23.35;11.15;;;29.20;99.90;;;;;;5081905;28;20194;-74
2022/08/30 09:28:50;;;;;;;17.13;10.93;;;29.30;99.90;;;;;;5067362;28;20182;-73
2022/08/30 09:31:29;;;;;;;21.40;11.45;;;29.30;99.90;;;;;;5072314;28;20221;-73
2022/08/30 09:34:04;;;;;;;16.27;10.32;;;29.40;99.90;;;;;;5064483;28;20206;-73
2022/08/30 09:36:51;;;;;;;17.00;10.65;;;29.50;99.90;;;;;;5071453;28;20194;-74
2022/08/30 09:39:30;;;;;;;16.92;10.15;;;29.60;99.90;;;;;;5081599;28;20654;-73
2022/08/30 09:42:23;;;;;;;17.60;10.85;;;29.60;99.90;;;;;;5088428;28;20196;-74
2022/08/30 09:44:51;;;;;;;16.15;10.10;;;29.70;99.90;;;;;;5105553;27;20214;-74
2022/08/30 09:47:29;;;;;;;19.05;10.48;;;29.80;99.90;;;;;;5128366;27;20197;-74
2022/08/30 09:50:30;;;;;;;19.42;11.13;;;29.80;99.90;;;;;;5056255;28;20277;-76
2022/08/30 09:53:21;;;;;;;21.23;10.05;;;29.90;99.90;;;;;;5062271;28;20192;-74
2022/08/30 09:56:07;;;;;;;20.10;11.07;;;30.00;99.90;;;;;;5087784;28;20189;-74
2022/08/30 09:59:05;;;;;;;14.68;9.95;;;30.20;99.90;;;;;;5073741;28;20189;-75
2022/08/30 10:01:45;;;;;;;16.15;9.65;;;30.10;99.90;;;;;;5085128;28;20266;-75
2022/08/30 10:04:44;;;;;;;16.35;10.45;;;30.10;99.90;;;;;;5112642;27;20277;-74
2022/08/30 10:07:26;;;;;;;30.27;10.15;;;30.20;99.90;;;;;;5103478;28;20317;-75
2022/08/30 10:10:04;;;;;;;16.80;8.95;;;30.30;99.90;;;;;;5101568;28;20270;-76
2022/08/30 10:13:02;;;;;;;14.35;9.55;;;30.30;99.90;;;;;;5070591;28;20595;-74
2022/08/30 10:16:07;;;;;;;16.77;9.70;;;30.20;99.90;;;;;;5095320;28;20590;-75
2022/08/30 10:19:06;;;;;;;13.52;9.27;;;30.30;99.90;;;;;;5076714;28;20572;-76
2022/08/30 10:22:03;;;;;;;16.45;9.75;;;30.60;99.90;;;;;;5086064;28;20189;-77
2022/08/30 10:24:44;;;;;;;15.57;9.52;;;30.80;99.90;;;;;;5095926;28;20623;-75
2022/08/30 10:27:19;;;;;;;18.33;9.27;;;30.70;99.90;;;;;;5067218;28;20187;-76
2022/08/30 10:30:16;;;;;;;15.32;8.35;;;30.90;99.90;;;;;;5093771;28;20204;-76
2022/08/30 10:33:32;;;;;;;13.82;8.80;;;30.70;99.90;;;;;;5064074;28;20187;-76
2022/08/30 10:36:05;;;;;;;14.52;9.10;;;30.50;99.90;;;;;;5073151;28;20191;-75
2022/08/30 10:38:43;;;;;;;21.10;9.15;;;30.50;99.90;;;;;;5014839;28;20214;-75
2022/08/30 10:41:31;;;;;;;24.17;8.82;;;30.50;99.90;;;;;;5074454;28;20194;-75
2022/08/30 10:44:31;;;;;;;16.38;8.27;;;30.50;99.90;;;;;;5104300;28;20186;-75
2022/08/30 10:47:20;;;;;;;17.38;8.55;;;30.50;99.90;;;;;;5090775;28;20189;-75
2022/08/30 10:49:53;;;;;;;19.23;9.27;;;30.50;99.90;;;;;;5094393;28;20372;-74
2022/08/30 10:52:46;;;;;;;20.77;8.57;;;30.60;99.90;;;;;;5128047;27;20214;-74
2022/08/30 10:55:24;;;;;;;18.48;9.60;;;30.40;99.90;;;;;;5102760;28;20301;-74
2022/08/30 10:57:51;;;;;;;17.85;8.00;;;30.40;99.90;;;;;;5116918;27;20646;-74
2022/08/30 11:00:38;;;;;;;18.35;9.05;;;30.40;99.90;;;;;;5104666;28;20210;-75
2022/08/30 11:03:42;;;;;;;18.65;8.73;;;30.30;99.90;;;;;;5088971;28;20243;-75
2022/08/30 11:06:30;;;;;;;17.73;8.80;;;30.20;99.90;;;;;;5109227;27;20182;-75
2022/08/30 11:09:29;;;;;;;13.88;9.02;;;30.10;99.90;;;;;;5087864;28;20181;-74
2022/08/30 11:12:32;;;;;;;19.55;9.30;;;30.10;99.90;;;;;;5089384;28;20199;-75
2022/08/30 11:15:20;;;;;;;16.55;9.02;;;30.10;99.90;;;;;;5097433;28;20564;-75
2022/08/30 11:18:10;;;;;;;16.85;8.45;;;30.10;99.90;;;;;;5105706;28;20191;-75
2022/08/30 11:20:49;;;;;;;14.32;8.40;;;30.10;99.90;;;;;;5098936;28;20196;-77
2022/08/30 11:23:29;;;;;;;18.60;8.63;;;30.10;99.90;;;;;;5129589;27;20185;-76
2022/08/30 11:26:44;;;;;;;12.48;8.88;;;30.10;99.90;;;;;;5090751;28;20190;-75
2022/08/30 11:29:35;;;;;;;16.33;8.32;;;30.10;99.90;;;;;;5072188;28;20206;-75
2022/08/30 11:32:11;;;;;;;18.30;8.88;;;30.20;99.90;;;;;;5082754;28;20202;-76
2022/08/30 11:34:46;;;;;;;13.23;7.95;;;30.20;99.90;;;;;;5122501;27;20311;-74
2022/08/30 11:37:37;;;;;;;13.75;8.20;;;30.10;99.90;;;;;;5088739;28;20204;-75
2022/08/30 11:41:09;;;;;;;11.13;8.25;;;30.10;99.90;;;;;;5116738;27;20196;-76
2022/08/30 11:43:38;;;;;;;15.85;9.07;;;30.00;99.90;;;;;;5051421;28;20197;-75
2022/08/30 11:46:19;;;;;;;16.65;9.07;;;29.90;99.90;;;;;;5083505;28;20186;-76
2022/08/30 11:49:24;;;;;;;14.85;9.00;;;29.90;99.90;;;;;;5084541;28;20192;-75
2022/08/30 11:52:25;;;;;;;16.73;8.68;;;30.00;99.90;;;;;;5114993;27;20225;-74
2022/08/30 11:55:33;;;;;;;16.38;8.05;;;29.90;99.90;;;;;;5057220;28;20293;-75
2022/08/30 11:58:46;;;;;;;23.20;9.18;;;29.80;99.90;;;;;;5117146;27;20683;-74
2022/08/30 12:01:26;;;;;;;15.15;8.35;;;29.80;99.90;;;;;;5095245;28;20192;-76
2022/08/30 12:03:57;;;;;;;12.35;8.82;;;29.80;99.90;;;;;;5119817;27;20251;-74
2022/08/30 12:07:11;;;;;;;14.73;8.98;;;29.80;99.90;;;;;;5092774;28;20301;-74
2022/08/30 12:10:02;;;;;;;15.98;8.63;;;29.90;99.90;;;;;;5086886;28;20644;-75
2022/08/30 12:12:38;;;;;;;17.88;9.75;;;29.80;99.90;;;;;;5117976;27;20715;-74
2022/08/30 12:15:05;;;;;;;16.33;8.80;;;29.80;99.90;;;;;;5100630;28;20218;-74
2022/08/30 12:20:48;;;;;;;16.42;8.88;;;29.80;99.90;;;;;;5083497;28;20178;-76
2022/08/30 12:23:31;;;;;;;14.13;8.68;;;29.90;99.90;;;;;;5086524;28;20186;-76
2022/08/30 12:26:24;;;;;;;18.30;9.40;;;29.90;99.90;;;;;;5084556;28;20860;-75
2022/08/30 12:29:26;;;;;;;21.33;8.82;;;29.80;99.90;;;;;;5082963;28;20262;-74
2022/08/30 12:32:00;;;;;;;17.75;8.48;;;29.80;99.90;;;;;;5120826;27;20177;-74
2022/08/30 12:34:52;;;;;;;16.73;8.40;;;29.80;99.90;;;;;;5086800;28;20232;-74
2022/08/30 12:37:37;;;;;;;15.18;9.00;;;29.70;99.90;;;;;;5133639;27;20260;-75
2022/08/30 12:40:21;;;;;;;12.85;8.88;;;29.80;99.90;;;;;;5105898;28;20231;-74
2022/08/30 12:43:03;;;;;;;15.68;9.10;;;29.70;99.90;;;;;;5090066;28;20178;-74
2022/08/30 12:45:42;;;;;;;24.63;9.85;;;29.80;99.90;;;;;;5091641;28;20182;-75
2022/08/30 12:48:16;;;;;;;16.05;9.20;;;29.80;99.90;;;;;;5089725;28;20276;-73
2022/08/30 12:50:53;;;;;;;15.82;8.48;;;29.70;99.90;;;;;;5090300;28;20760;-73
2022/08/30 12:53:40;;;;;;;15.68;7.47;;;29.60;99.90;;;;;;5089852;28;20197;-74
2022/08/30 12:56:16;;;;;;;11.45;8.63;;;29.50;99.90;;;;;;5089830;28;20170;-73
2022/08/30 12:58:51;;;;;;;19.27;8.98;;;29.50;99.90;;;;;;5089366;28;20182;-73
2022/08/30 13:01:35;;;;;;;15.00;7.32;;;29.50;99.90;;;;;;5091351;28;20189;-73
2022/08/30 13:04:24;;;;;;;16.90;8.20;;;29.60;99.90;;;;;;5089745;28;20194;-73
2022/08/30 13:07:00;;;;;;;15.15;8.65;;;29.50;99.90;;;;;;5090097;28;20265;-73
2022/08/30 13:09:41;;;;;;;12.30;7.90;;;29.60;99.90;;;;;;5105661;28;20182;-73
2022/08/30 13:12:25;;;;;;;13.68;8.98;;;29.60;99.90;;;;;;5089849;28;20589;-73
2022/08/30 13:14:52;;;;;;;13.85;8.32;;;29.70;99.90;;;;;;5089634;28;20291;-73
2022/08/30 13:17:18;;;;;;;16.75;8.00;;;29.70;99.90;;;;;;5096585;28;20206;-75
2022/08/30 13:20:23;;;;;;;19.10;8.93;;;29.80;99.90;;;;;;5102821;28;20214;-73